sensor_id;sensor_type;location;lat;lon;timestamp;temperature;humidity
4840;DHT22;2434;48.486;7.964;2023-10-13T00:01:04;21.00;29.10
4840;DHT22;2434;48.486;7.964;2023-10-13T00:03:35;21.00;29.10
4840;DHT22;2434;48.486;7.964;2023-10-13T00:06:04;21.00;29.00
4840;DHT22;2434;48.486;7.964;2023-10-13T00:08:33;21.00;29.30
4840;DHT22;2434;48.486;7.964;2023-10-13T00:11:04;21.00;29.60
4840;DHT22;2434;48.486;7.964;2023-10-13T00:13:32;21.10;29.70
4840;DHT22;2434;48.486;7.964;2023-10-13T00:16:09;21.00;29.60
4840;DHT22;2434;48.486;7.964;2023-10-13T00:18:45;21.10;30.00
4840;DHT22;2434;48.486;7.964;2023-10-13T00:21:14;21.00;30.50
4840;DHT22;2434;48.486;7.964;2023-10-13T00:23:58;21.00;30.60
4840;DHT22;2434;48.486;7.964;2023-10-13T00:26:29;21.00;30.80
4840;DHT22;2434;48.486;7.964;2023-10-13T00:28:59;21.00;31.00
4840;DHT22;2434;48.486;7.964;2023-10-13T00:31:38;21.00;31.20
4840;DHT22;2434;48.486;7.964;2023-10-13T00:34:12;21.00;31.70
4840;DHT22;2434;48.486;7.964;2023-10-13T00:36:46;21.00;32.20
4840;DHT22;2434;48.486;7.964;2023-10-13T00:39:36;21.00;32.90
4840;DHT22;2434;48.486;7.964;2023-10-13T00:42:07;20.90;33.60
4840;DHT22;2434;48.486;7.964;2023-10-13T00:44:44;21.00;33.70
4840;DHT22;2434;48.486;7.964;2023-10-13T00:47:16;20.90;33.80
4840;DHT22;2434;48.486;7.964;2023-10-13T00:49:46;20.80;33.70
4840;DHT22;2434;48.486;7.964;2023-10-13T00:52:15;20.80;34.00
4840;DHT22;2434;48.486;7.964;2023-10-13T00:54:45;20.80;34.30
4840;DHT22;2434;48.486;7.964;2023-10-13T00:57:14;20.80;34.10
4840;DHT22;2434;48.486;7.964;2023-10-13T00:59:53;20.80;34.60
4840;DHT22;2434;48.486;7.964;2023-10-13T01:02:22;20.70;34.80
4840;DHT22;2434;48.486;7.964;2023-10-13T01:05:11;20.70;35.00
4840;DHT22;2434;48.486;7.964;2023-10-13T01:07:46;20.70;35.30
4840;DHT22;2434;48.486;7.964;2023-10-13T01:10:17;20.60;35.00
4840;DHT22;2434;48.486;7.964;2023-10-13T01:12:46;20.50;34.60
4840;DHT22;2434;48.486;7.964;2023-10-13T01:15:14;20.50;34.40
4840;DHT22;2434;48.486;7.964;2023-10-13T01:17:45;20.50;34.60
4840;DHT22;2434;48.486;7.964;2023-10-13T01:20:14;20.50;35.60
4840;DHT22;2434;48.486;7.964;2023-10-13T01:22:48;20.40;35.70
4840;DHT22;2434;48.486;7.964;2023-10-13T01:25:24;20.40;35.60
4840;DHT22;2434;48.486;7.964;2023-10-13T01:27:56;20.40;35.40
4840;DHT22;2434;48.486;7.964;2023-10-13T01:30:23;20.30;34.80
4840;DHT22;2434;48.486;7.964;2023-10-13T01:32:51;20.30;35.00
4840;DHT22;2434;48.486;7.964;2023-10-13T01:35:20;20.20;34.90
4840;DHT22;2434;48.486;7.964;2023-10-13T01:37:52;20.20;34.90
4840;DHT22;2434;48.486;7.964;2023-10-13T01:40:19;20.20;35.00
4840;DHT22;2434;48.486;7.964;2023-10-13T01:42:49;20.10;35.20
4840;DHT22;2434;48.486;7.964;2023-10-13T01:45:22;20.10;35.40
4840;DHT22;2434;48.486;7.964;2023-10-13T01:47:56;20.10;35.70
4840;DHT22;2434;48.486;7.964;2023-10-13T01:50:23;20.00;35.30
4840;DHT22;2434;48.486;7.964;2023-10-13T01:52:56;20.00;35.30
4840;DHT22;2434;48.486;7.964;2023-10-13T01:55:32;20.00;35.20
4840;DHT22;2434;48.486;7.964;2023-10-13T01:58:12;20.00;34.90
4840;DHT22;2434;48.486;7.964;2023-10-13T02:00:47;20.00;35.50
4840;DHT22;2434;48.486;7.964;2023-10-13T02:03:15;20.00;35.30
4840;DHT22;2434;48.486;7.964;2023-10-13T02:05:44;20.00;35.10
4840;DHT22;2434;48.486;7.964;2023-10-13T02:08:14;19.90;35.10
4840;DHT22;2434;48.486;7.964;2023-10-13T02:10:49;20.00;35.60
4840;DHT22;2434;48.486;7.964;2023-10-13T02:13:19;19.90;35.60
4840;DHT22;2434;48.486;7.964;2023-10-13T02:15:53;19.90;35.90
4840;DHT22;2434;48.486;7.964;2023-10-13T02:18:24;19.90;36.20
4840;DHT22;2434;48.486;7.964;2023-10-13T02:20:54;19.80;36.60
4840;DHT22;2434;48.486;7.964;2023-10-13T02:23:22;19.80;37.20
4840;DHT22;2434;48.486;7.964;2023-10-13T02:25:51;19.80;38.10
4840;DHT22;2434;48.486;7.964;2023-10-13T02:28:21;19.80;38.10
4840;DHT22;2434;48.486;7.964;2023-10-13T02:30:55;19.70;37.40
4840;DHT22;2434;48.486;7.964;2023-10-13T02:33:24;19.70;37.60
4840;DHT22;2434;48.486;7.964;2023-10-13T02:35:58;19.80;38.20
4840;DHT22;2434;48.486;7.964;2023-10-13T02:38:27;19.70;38.70
4840;DHT22;2434;48.486;7.964;2023-10-13T02:40:55;19.70;39.30
4840;DHT22;2434;48.486;7.964;2023-10-13T02:43:24;19.60;39.40
4840;DHT22;2434;48.486;7.964;2023-10-13T02:45:53;19.60;39.50
4840;DHT22;2434;48.486;7.964;2023-10-13T02:48:25;19.60;39.70
4840;DHT22;2434;48.486;7.964;2023-10-13T02:50:59;19.50;39.70
4840;DHT22;2434;48.486;7.964;2023-10-13T02:53:32;19.50;40.10
4840;DHT22;2434;48.486;7.964;2023-10-13T02:55:59;19.50;40.30
4840;DHT22;2434;48.486;7.964;2023-10-13T02:58:33;19.40;40.80
4840;DHT22;2434;48.486;7.964;2023-10-13T03:01:06;19.40;41.30
4840;DHT22;2434;48.486;7.964;2023-10-13T03:03:47;19.30;41.10
4840;DHT22;2434;48.486;7.964;2023-10-13T03:06:17;19.30;41.00
4840;DHT22;2434;48.486;7.964;2023-10-13T03:08:48;19.20;41.20
4840;DHT22;2434;48.486;7.964;2023-10-13T03:11:16;19.20;41.10
4840;DHT22;2434;48.486;7.964;2023-10-13T03:13:49;19.20;39.80
4840;DHT22;2434;48.486;7.964;2023-10-13T03:16:19;19.10;40.00
4840;DHT22;2434;48.486;7.964;2023-10-13T03:18:48;19.10;40.10
4840;DHT22;2434;48.486;7.964;2023-10-13T03:21:21;19.00;40.60
4840;DHT22;2434;48.486;7.964;2023-10-13T03:23:57;19.00;40.50
4840;DHT22;2434;48.486;7.964;2023-10-13T03:26:32;19.00;40.10
4840;DHT22;2434;48.486;7.964;2023-10-13T03:29:05;19.00;39.60
4840;DHT22;2434;48.486;7.964;2023-10-13T03:31:40;19.00;39.90
4840;DHT22;2434;48.486;7.964;2023-10-13T03:34:12;19.00;40.40
4840;DHT22;2434;48.486;7.964;2023-10-13T03:36:41;19.00;40.90
4840;DHT22;2434;48.486;7.964;2023-10-13T03:39:25;19.00;40.80
4840;DHT22;2434;48.486;7.964;2023-10-13T03:41:57;18.90;40.40
4840;DHT22;2434;48.486;7.964;2023-10-13T03:44:28;18.90;40.50
4840;DHT22;2434;48.486;7.964;2023-10-13T03:46:58;18.80;40.40
4840;DHT22;2434;48.486;7.964;2023-10-13T03:49:39;18.80;40.80
4840;DHT22;2434;48.486;7.964;2023-10-13T03:52:07;18.80;41.00
4840;DHT22;2434;48.486;7.964;2023-10-13T03:54:40;18.80;40.70
4840;DHT22;2434;48.486;7.964;2023-10-13T03:57:09;18.80;41.10
4840;DHT22;2434;48.486;7.964;2023-10-13T03:59:40;18.70;41.30
4840;DHT22;2434;48.486;7.964;2023-10-13T04:02:14;18.70;41.40
4840;DHT22;2434;48.486;7.964;2023-10-13T04:04:51;18.70;41.50
4840;DHT22;2434;48.486;7.964;2023-10-13T04:07:22;18.60;41.90
4840;DHT22;2434;48.486;7.964;2023-10-13T04:10:27;18.60;42.80
4840;DHT22;2434;48.486;7.964;2023-10-13T04:13:12;18.60;43.00
4840;DHT22;2434;48.486;7.964;2023-10-13T04:16:00;18.60;43.30
4840;DHT22;2434;48.486;7.964;2023-10-13T04:19:01;18.50;43.30
4840;DHT22;2434;48.486;7.964;2023-10-13T04:21:36;18.40;43.40
4840;DHT22;2434;48.486;7.964;2023-10-13T04:24:10;18.40;43.50
4840;DHT22;2434;48.486;7.964;2023-10-13T04:27:04;18.40;43.30
4840;DHT22;2434;48.486;7.964;2023-10-13T04:30:07;18.40;43.40
4840;DHT22;2434;48.486;7.964;2023-10-13T04:32:38;18.40;43.30
4840;DHT22;2434;48.486;7.964;2023-10-13T04:35:13;18.30;43.70
4840;DHT22;2434;48.486;7.964;2023-10-13T04:37:45;18.30;41.60
4840;DHT22;2434;48.486;7.964;2023-10-13T04:40:18;18.20;41.30
4840;DHT22;2434;48.486;7.964;2023-10-13T04:42:52;18.20;40.70
4840;DHT22;2434;48.486;7.964;2023-10-13T04:45:24;18.20;40.90
4840;DHT22;2434;48.486;7.964;2023-10-13T04:48:18;18.20;41.50
4840;DHT22;2434;48.486;7.964;2023-10-13T04:51:00;18.30;41.70
4840;DHT22;2434;48.486;7.964;2023-10-13T04:53:42;18.20;41.40
4840;DHT22;2434;48.486;7.964;2023-10-13T04:56:24;18.20;40.40
4840;DHT22;2434;48.486;7.964;2023-10-13T04:59:17;18.20;40.90
4840;DHT22;2434;48.486;7.964;2023-10-13T05:02:02;18.20;41.00
4840;DHT22;2434;48.486;7.964;2023-10-13T05:04:50;18.20;40.50
4840;DHT22;2434;48.486;7.964;2023-10-13T05:07:36;18.20;41.50
4840;DHT22;2434;48.486;7.964;2023-10-13T05:10:21;18.20;41.80
4840;DHT22;2434;48.486;7.964;2023-10-13T05:13:07;18.20;42.20
4840;DHT22;2434;48.486;7.964;2023-10-13T05:15:52;18.30;42.70
4840;DHT22;2434;48.486;7.964;2023-10-13T05:18:38;18.20;42.60
4840;DHT22;2434;48.486;7.964;2023-10-13T05:21:24;18.30;42.40
4840;DHT22;2434;48.486;7.964;2023-10-13T05:24:09;18.20;42.20
4840;DHT22;2434;48.486;7.964;2023-10-13T05:26:54;18.20;41.50
4840;DHT22;2434;48.486;7.964;2023-10-13T05:29:47;18.20;42.20
4840;DHT22;2434;48.486;7.964;2023-10-13T05:32:33;18.20;42.30
4840;DHT22;2434;48.486;7.964;2023-10-13T05:35:20;18.20;42.60
4840;DHT22;2434;48.486;7.964;2023-10-13T05:38:07;18.10;41.90
4840;DHT22;2434;48.486;7.964;2023-10-13T05:40:53;18.10;41.60
4840;DHT22;2434;48.486;7.964;2023-10-13T05:43:39;18.10;42.20
4840;DHT22;2434;48.486;7.964;2023-10-13T05:46:25;18.10;42.00
4840;DHT22;2434;48.486;7.964;2023-10-13T05:49:10;18.10;41.70
4840;DHT22;2434;48.486;7.964;2023-10-13T05:52:06;18.10;41.60
4840;DHT22;2434;48.486;7.964;2023-10-13T05:54:47;18.10;40.70
4840;DHT22;2434;48.486;7.964;2023-10-13T05:57:33;18.00;39.70
4840;DHT22;2434;48.486;7.964;2023-10-13T06:00:18;18.10;41.00
4840;DHT22;2434;48.486;7.964;2023-10-13T06:03:04;18.00;41.20
4840;DHT22;2434;48.486;7.964;2023-10-13T06:05:49;18.00;40.50
4840;DHT22;2434;48.486;7.964;2023-10-13T06:08:35;18.00;40.50
4840;DHT22;2434;48.486;7.964;2023-10-13T06:11:22;18.00;41.30
4840;DHT22;2434;48.486;7.964;2023-10-13T06:14:08;18.00;41.30
4840;DHT22;2434;48.486;7.964;2023-10-13T06:16:50;18.00;41.50
4840;DHT22;2434;48.486;7.964;2023-10-13T06:19:36;18.00;41.40
4840;DHT22;2434;48.486;7.964;2023-10-13T06:22:22;18.00;41.80
4840;DHT22;2434;48.486;7.964;2023-10-13T06:25:07;17.90;41.10
4840;DHT22;2434;48.486;7.964;2023-10-13T06:27:54;17.90;40.40
4840;DHT22;2434;48.486;7.964;2023-10-13T06:30:39;17.90;39.30
4840;DHT22;2434;48.486;7.964;2023-10-13T06:33:07;17.90;38.00
4840;DHT22;2434;48.486;7.964;2023-10-13T06:35:38;17.90;37.10
4840;DHT22;2434;48.486;7.964;2023-10-13T06:38:08;18.00;37.00
4840;DHT22;2434;48.486;7.964;2023-10-13T06:40:48;18.00;38.20
4840;DHT22;2434;48.486;7.964;2023-10-13T06:43:19;18.10;38.20
4840;DHT22;2434;48.486;7.964;2023-10-13T06:45:49;18.10;37.80
4840;DHT22;2434;48.486;7.964;2023-10-13T06:48:28;18.20;38.00
4840;DHT22;2434;48.486;7.964;2023-10-13T06:51:00;18.20;37.70
4840;DHT22;2434;48.486;7.964;2023-10-13T06:53:32;18.20;37.70
4840;DHT22;2434;48.486;7.964;2023-10-13T06:56:06;18.30;36.60
4840;DHT22;2434;48.486;7.964;2023-10-13T06:58:37;18.40;36.20
4840;DHT22;2434;48.486;7.964;2023-10-13T07:01:10;18.40;36.00
4840;DHT22;2434;48.486;7.964;2023-10-13T07:03:42;18.50;36.60
4840;DHT22;2434;48.486;7.964;2023-10-13T07:06:11;18.50;37.10
4840;DHT22;2434;48.486;7.964;2023-10-13T07:08:45;18.50;37.30
4840;DHT22;2434;48.486;7.964;2023-10-13T07:11:19;18.60;37.60
4840;DHT22;2434;48.486;7.964;2023-10-13T07:14:01;18.60;37.80
4840;DHT22;2434;48.486;7.964;2023-10-13T07:16:43;18.70;37.60
4840;DHT22;2434;48.486;7.964;2023-10-13T07:19:14;18.70;37.90
4840;DHT22;2434;48.486;7.964;2023-10-13T07:21:48;18.80;37.90
4840;DHT22;2434;48.486;7.964;2023-10-13T07:24:25;18.80;38.20
4840;DHT22;2434;48.486;7.964;2023-10-13T07:27:01;18.90;37.50
4840;DHT22;2434;48.486;7.964;2023-10-13T07:29:34;19.00;38.00
4840;DHT22;2434;48.486;7.964;2023-10-13T07:32:03;19.00;37.80
4840;DHT22;2434;48.486;7.964;2023-10-13T07:34:37;19.10;37.10
4840;DHT22;2434;48.486;7.964;2023-10-13T07:37:06;19.10;37.00
4840;DHT22;2434;48.486;7.964;2023-10-13T07:39:35;19.10;38.30
4840;DHT22;2434;48.486;7.964;2023-10-13T07:42:06;19.10;36.30
4840;DHT22;2434;48.486;7.964;2023-10-13T07:44:43;19.20;36.20
4840;DHT22;2434;48.486;7.964;2023-10-13T07:47:14;19.20;36.50
4840;DHT22;2434;48.486;7.964;2023-10-13T07:49:44;19.30;36.90
4840;DHT22;2434;48.486;7.964;2023-10-13T07:52:15;19.30;36.10
4840;DHT22;2434;48.486;7.964;2023-10-13T07:54:55;19.30;35.90
4840;DHT22;2434;48.486;7.964;2023-10-13T07:57:26;19.50;36.40
4840;DHT22;2434;48.486;7.964;2023-10-13T07:59:58;19.50;36.90
4840;DHT22;2434;48.486;7.964;2023-10-13T08:02:39;19.50;37.00
4840;DHT22;2434;48.486;7.964;2023-10-13T08:05:18;19.60;36.20
4840;DHT22;2434;48.486;7.964;2023-10-13T08:08:06;19.70;36.90
4840;DHT22;2434;48.486;7.964;2023-10-13T08:10:41;19.80;37.10
4840;DHT22;2434;48.486;7.964;2023-10-13T08:13:12;19.80;36.80
4840;DHT22;2434;48.486;7.964;2023-10-13T08:15:42;19.90;37.00
4840;DHT22;2434;48.486;7.964;2023-10-13T08:18:14;19.90;37.20
4840;DHT22;2434;48.486;7.964;2023-10-13T08:20:46;19.90;36.70
4840;DHT22;2434;48.486;7.964;2023-10-13T08:23:19;20.00;37.20
4840;DHT22;2434;48.486;7.964;2023-10-13T08:26:09;20.10;34.60
4840;DHT22;2434;48.486;7.964;2023-10-13T08:28:55;20.30;35.70
4840;DHT22;2434;48.486;7.964;2023-10-13T08:31:25;20.40;34.40
4840;DHT22;2434;48.486;7.964;2023-10-13T08:33:53;20.50;33.60
4840;DHT22;2434;48.486;7.964;2023-10-13T08:36:32;20.50;32.40
4840;DHT22;2434;48.486;7.964;2023-10-13T08:39:04;20.60;31.20
4840;DHT22;2434;48.486;7.964;2023-10-13T08:42:04;20.70;31.40
4840;DHT22;2434;48.486;7.964;2023-10-13T08:44:43;20.80;31.00
4840;DHT22;2434;48.486;7.964;2023-10-13T08:47:16;21.10;29.80
4840;DHT22;2434;48.486;7.964;2023-10-13T08:49:48;21.40;28.10
4840;DHT22;2434;48.486;7.964;2023-10-13T08:52:23;21.50;26.30
4840;DHT22;2434;48.486;7.964;2023-10-13T08:55:13;21.70;24.60
4840;DHT22;2434;48.486;7.964;2023-10-13T08:57:56;22.10;23.20
4840;DHT22;2434;48.486;7.964;2023-10-13T09:00:29;22.30;22.40
4840;DHT22;2434;48.486;7.964;2023-10-13T09:03:14;22.50;22.00
4840;DHT22;2434;48.486;7.964;2023-10-13T09:06:06;22.60;22.10
4840;DHT22;2434;48.486;7.964;2023-10-13T09:08:33;22.80;19.00
4840;DHT22;2434;48.486;7.964;2023-10-13T09:11:11;22.90;20.00
4840;DHT22;2434;48.486;7.964;2023-10-13T09:13:39;23.00;19.90
4840;DHT22;2434;48.486;7.964;2023-10-13T09:16:14;23.00;19.90
4840;DHT22;2434;48.486;7.964;2023-10-13T09:18:51;22.90;20.00
4840;DHT22;2434;48.486;7.964;2023-10-13T09:21:19;22.90;20.20
4840;DHT22;2434;48.486;7.964;2023-10-13T09:24:09;22.90;20.50
4840;DHT22;2434;48.486;7.964;2023-10-13T09:26:49;22.90;20.60
4840;DHT22;2434;48.486;7.964;2023-10-13T09:29:20;22.90;21.80
4840;DHT22;2434;48.486;7.964;2023-10-13T09:31:59;23.00;21.50
4840;DHT22;2434;48.486;7.964;2023-10-13T09:34:28;23.10;20.60
4840;DHT22;2434;48.486;7.964;2023-10-13T09:37:01;23.00;20.20
4840;DHT22;2434;48.486;7.964;2023-10-13T09:39:30;23.00;20.60
4840;DHT22;2434;48.486;7.964;2023-10-13T09:42:11;23.10;21.00
4840;DHT22;2434;48.486;7.964;2023-10-13T09:44:43;23.10;20.10
4840;DHT22;2434;48.486;7.964;2023-10-13T09:47:21;23.10;21.00
4840;DHT22;2434;48.486;7.964;2023-10-13T09:49:59;23.20;21.10
4840;DHT22;2434;48.486;7.964;2023-10-13T09:52:33;23.30;20.70
4840;DHT22;2434;48.486;7.964;2023-10-13T09:55:09;23.40;20.20
4840;DHT22;2434;48.486;7.964;2023-10-13T09:57:45;23.60;20.50
4840;DHT22;2434;48.486;7.964;2023-10-13T10:00:18;23.60;19.50
4840;DHT22;2434;48.486;7.964;2023-10-13T10:03:10;23.70;19.60
4840;DHT22;2434;48.486;7.964;2023-10-13T10:06:08;23.80;19.20
4840;DHT22;2434;48.486;7.964;2023-10-13T10:08:45;24.00;19.40
4840;DHT22;2434;48.486;7.964;2023-10-13T10:14:28;24.20;18.80
4840;DHT22;2434;48.486;7.964;2023-10-13T10:17:05;24.30;19.80
4840;DHT22;2434;48.486;7.964;2023-10-13T10:19:51;24.30;18.80
4840;DHT22;2434;48.486;7.964;2023-10-13T10:22:27;24.40;18.00
4840;DHT22;2434;48.486;7.964;2023-10-13T10:24:58;24.50;17.30
4840;DHT22;2434;48.486;7.964;2023-10-13T10:27:28;24.50;18.00
4840;DHT22;2434;48.486;7.964;2023-10-13T10:29:57;24.60;18.10
4840;DHT22;2434;48.486;7.964;2023-10-13T10:32:33;24.60;18.40
4840;DHT22;2434;48.486;7.964;2023-10-13T10:35:06;24.80;17.70
4840;DHT22;2434;48.486;7.964;2023-10-13T10:37:37;25.00;15.80
4840;DHT22;2434;48.486;7.964;2023-10-13T10:40:14;25.00;15.80
4840;DHT22;2434;48.486;7.964;2023-10-13T10:43:00;25.10;15.50
4840;DHT22;2434;48.486;7.964;2023-10-13T10:45:47;25.30;16.10
4840;DHT22;2434;48.486;7.964;2023-10-13T10:48:18;25.50;14.90
4840;DHT22;2434;48.486;7.964;2023-10-13T10:50:57;25.50;15.20
4840;DHT22;2434;48.486;7.964;2023-10-13T10:53:28;25.50;14.90
4840;DHT22;2434;48.486;7.964;2023-10-13T10:56:07;25.70;14.20
4840;DHT22;2434;48.486;7.964;2023-10-13T10:58:47;25.70;14.60
4840;DHT22;2434;48.486;7.964;2023-10-13T11:01:15;26.00;14.70
4840;DHT22;2434;48.486;7.964;2023-10-13T11:03:55;26.20;14.50
4840;DHT22;2434;48.486;7.964;2023-10-13T11:06:25;26.30;14.50
4840;DHT22;2434;48.486;7.964;2023-10-13T11:09:05;26.30;13.90
4840;DHT22;2434;48.486;7.964;2023-10-13T11:11:45;26.30;15.20
4840;DHT22;2434;48.486;7.964;2023-10-13T11:14:20;26.40;13.90
4840;DHT22;2434;48.486;7.964;2023-10-13T11:16:51;26.40;14.30
4840;DHT22;2434;48.486;7.964;2023-10-13T11:19:21;26.50;15.10
4840;DHT22;2434;48.486;7.964;2023-10-13T11:21:55;26.70;15.30
4840;DHT22;2434;48.486;7.964;2023-10-13T11:24:25;27.00;14.30
4840;DHT22;2434;48.486;7.964;2023-10-13T11:26:53;27.20;14.40
4840;DHT22;2434;48.486;7.964;2023-10-13T11:29:31;27.30;14.20
4840;DHT22;2434;48.486;7.964;2023-10-13T11:32:01;27.50;13.70
4840;DHT22;2434;48.486;7.964;2023-10-13T11:34:30;27.80;12.50
4840;DHT22;2434;48.486;7.964;2023-10-13T11:37:07;28.10;13.30
4840;DHT22;2434;48.486;7.964;2023-10-13T11:39:54;28.20;12.40
4840;DHT22;2434;48.486;7.964;2023-10-13T11:42:22;28.20;12.10
4840;DHT22;2434;48.486;7.964;2023-10-13T11:44:53;28.30;12.30
4840;DHT22;2434;48.486;7.964;2023-10-13T11:47:42;28.10;12.00
4840;DHT22;2434;48.486;7.964;2023-10-13T11:50:25;28.20;12.80
4840;DHT22;2434;48.486;7.964;2023-10-13T11:53:00;28.10;12.40
4840;DHT22;2434;48.486;7.964;2023-10-13T11:55:29;28.00;12.80
4840;DHT22;2434;48.486;7.964;2023-10-13T11:57:57;27.90;13.50
4840;DHT22;2434;48.486;7.964;2023-10-13T12:00:26;27.80;13.40
4840;DHT22;2434;48.486;7.964;2023-10-13T12:03:14;27.60;12.80
4840;DHT22;2434;48.486;7.964;2023-10-13T12:06:00;27.40;13.20
4840;DHT22;2434;48.486;7.964;2023-10-13T12:08:45;27.20;13.70
4840;DHT22;2434;48.486;7.964;2023-10-13T12:11:19;27.20;13.80
4840;DHT22;2434;48.486;7.964;2023-10-13T12:14:05;27.10;14.00
4840;DHT22;2434;48.486;7.964;2023-10-13T12:16:44;27.00;14.40
4840;DHT22;2434;48.486;7.964;2023-10-13T12:19:16;27.10;14.10
4840;DHT22;2434;48.486;7.964;2023-10-13T12:21:44;27.20;14.00
4840;DHT22;2434;48.486;7.964;2023-10-13T12:24:14;27.30;14.20
4840;DHT22;2434;48.486;7.964;2023-10-13T12:26:50;27.40;13.20
4840;DHT22;2434;48.486;7.964;2023-10-13T12:29:23;27.50;13.00
4840;DHT22;2434;48.486;7.964;2023-10-13T12:31:55;27.70;12.70
4840;DHT22;2434;48.486;7.964;2023-10-13T12:34:35;27.80;13.30
4840;DHT22;2434;48.486;7.964;2023-10-13T12:37:30;27.70;12.80
4840;DHT22;2434;48.486;7.964;2023-10-13T12:40:14;27.70;12.40
4840;DHT22;2434;48.486;7.964;2023-10-13T12:43:02;27.80;12.70
4840;DHT22;2434;48.486;7.964;2023-10-13T12:45:49;27.90;12.60
4840;DHT22;2434;48.486;7.964;2023-10-13T12:48:35;28.10;12.90
4840;DHT22;2434;48.486;7.964;2023-10-13T12:51:21;28.20;14.30
4840;DHT22;2434;48.486;7.964;2023-10-13T12:54:07;28.50;12.50
4840;DHT22;2434;48.486;7.964;2023-10-13T12:56:44;28.70;12.20
4840;DHT22;2434;48.486;7.964;2023-10-13T12:59:13;28.50;11.90
4840;DHT22;2434;48.486;7.964;2023-10-13T13:01:42;28.60;12.40
4840;DHT22;2434;48.486;7.964;2023-10-13T13:04:10;28.60;12.80
4840;DHT22;2434;48.486;7.964;2023-10-13T13:06:47;28.70;12.50
4840;DHT22;2434;48.486;7.964;2023-10-13T13:09:16;28.70;12.00
4840;DHT22;2434;48.486;7.964;2023-10-13T13:11:52;28.90;11.40
4840;DHT22;2434;48.486;7.964;2023-10-13T13:14:25;29.10;11.40
4840;DHT22;2434;48.486;7.964;2023-10-13T13:16:55;29.10;10.90
4840;DHT22;2434;48.486;7.964;2023-10-13T13:19:32;29.10;10.80
4840;DHT22;2434;48.486;7.964;2023-10-13T13:22:03;29.10;11.60
4840;DHT22;2434;48.486;7.964;2023-10-13T13:24:32;29.20;10.40
4840;DHT22;2434;48.486;7.964;2023-10-13T13:27:00;29.20;10.30
4840;DHT22;2434;48.486;7.964;2023-10-13T13:29:31;29.30;10.20
4840;DHT22;2434;48.486;7.964;2023-10-13T13:31:59;29.20;9.90
4840;DHT22;2434;48.486;7.964;2023-10-13T13:34:28;29.20;10.10
4840;DHT22;2434;48.486;7.964;2023-10-13T13:36:57;29.20;9.40
4840;DHT22;2434;48.486;7.964;2023-10-13T13:39:27;29.10;9.80
4840;DHT22;2434;48.486;7.964;2023-10-13T13:41:57;29.20;9.90
4840;DHT22;2434;48.486;7.964;2023-10-13T13:44:25;29.10;10.00
4840;DHT22;2434;48.486;7.964;2023-10-13T13:47:04;29.10;10.40
4840;DHT22;2434;48.486;7.964;2023-10-13T13:49:39;29.10;9.70
4840;DHT22;2434;48.486;7.964;2023-10-13T13:52:07;29.20;10.30
4840;DHT22;2434;48.486;7.964;2023-10-13T13:54:36;29.20;10.20
4840;DHT22;2434;48.486;7.964;2023-10-13T13:57:07;29.40;10.40
4840;DHT22;2434;48.486;7.964;2023-10-13T13:59:35;29.40;10.20
4840;DHT22;2434;48.486;7.964;2023-10-13T14:02:04;29.40;10.30
4840;DHT22;2434;48.486;7.964;2023-10-13T14:04:46;29.40;9.40
4840;DHT22;2434;48.486;7.964;2023-10-13T14:07:18;29.40;9.60
4840;DHT22;2434;48.486;7.964;2023-10-13T14:09:48;29.40;9.40
4840;DHT22;2434;48.486;7.964;2023-10-13T14:12:19;29.40;8.90
4840;DHT22;2434;48.486;7.964;2023-10-13T14:15:09;29.40;9.20
4840;DHT22;2434;48.486;7.964;2023-10-13T14:17:48;29.50;10.00
4840;DHT22;2434;48.486;7.964;2023-10-13T14:20:16;29.50;9.30
4840;DHT22;2434;48.486;7.964;2023-10-13T14:22:46;29.40;10.20
4840;DHT22;2434;48.486;7.964;2023-10-13T14:25:15;29.40;10.40
4840;DHT22;2434;48.486;7.964;2023-10-13T14:27:45;29.40;9.80
4840;DHT22;2434;48.486;7.964;2023-10-13T14:30:13;29.40;9.30
4840;DHT22;2434;48.486;7.964;2023-10-13T14:32:48;29.40;8.90
4840;DHT22;2434;48.486;7.964;2023-10-13T14:35:16;29.40;8.80
4840;DHT22;2434;48.486;7.964;2023-10-13T14:37:44;29.40;8.50
4840;DHT22;2434;48.486;7.964;2023-10-13T14:40:12;29.30;9.10
4840;DHT22;2434;48.486;7.964;2023-10-13T14:42:42;29.30;9.90
4840;DHT22;2434;48.486;7.964;2023-10-13T14:45:10;29.20;7.90
4840;DHT22;2434;48.486;7.964;2023-10-13T14:47:40;29.30;8.70
4840;DHT22;2434;48.486;7.964;2023-10-13T14:50:11;29.30;8.30
4840;DHT22;2434;48.486;7.964;2023-10-13T14:52:47;29.20;9.00
4840;DHT22;2434;48.486;7.964;2023-10-13T14:55:15;29.20;9.60
4840;DHT22;2434;48.486;7.964;2023-10-13T14:57:46;29.20;9.20
4840;DHT22;2434;48.486;7.964;2023-10-13T15:00:18;29.20;7.90
4840;DHT22;2434;48.486;7.964;2023-10-13T15:02:52;29.10;8.60
4840;DHT22;2434;48.486;7.964;2023-10-13T15:05:24;29.20;8.80
4840;DHT22;2434;48.486;7.964;2023-10-13T15:07:52;29.10;8.00
4840;DHT22;2434;48.486;7.964;2023-10-13T15:10:20;29.00;8.10
4840;DHT22;2434;48.486;7.964;2023-10-13T15:12:48;29.00;8.80
4840;DHT22;2434;48.486;7.964;2023-10-13T15:15:16;29.00;8.90
4840;DHT22;2434;48.486;7.964;2023-10-13T15:17:46;28.90;8.30
4840;DHT22;2434;48.486;7.964;2023-10-13T15:20:15;28.90;8.80
4840;DHT22;2434;48.486;7.964;2023-10-13T15:22:47;28.90;9.10
4840;DHT22;2434;48.486;7.964;2023-10-13T15:25:16;28.80;9.20
4840;DHT22;2434;48.486;7.964;2023-10-13T15:27:57;28.70;8.70
4840;DHT22;2434;48.486;7.964;2023-10-13T15:30:29;28.70;8.60
4840;DHT22;2434;48.486;7.964;2023-10-13T15:33:11;28.60;8.70
4840;DHT22;2434;48.486;7.964;2023-10-13T15:35:40;28.50;9.20
4840;DHT22;2434;48.486;7.964;2023-10-13T15:38:11;28.40;8.80
4840;DHT22;2434;48.486;7.964;2023-10-13T15:40:43;28.30;8.80
4840;DHT22;2434;48.486;7.964;2023-10-13T15:43:12;28.20;8.60
4840;DHT22;2434;48.486;7.964;2023-10-13T15:45:40;28.20;8.80
4840;DHT22;2434;48.486;7.964;2023-10-13T15:48:09;28.00;9.00
4840;DHT22;2434;48.486;7.964;2023-10-13T15:50:44;27.90;8.20
4840;DHT22;2434;48.486;7.964;2023-10-13T15:53:14;27.80;9.80
4840;DHT22;2434;48.486;7.964;2023-10-13T15:55:42;27.80;9.80
4840;DHT22;2434;48.486;7.964;2023-10-13T15:58:13;27.70;10.20
4840;DHT22;2434;48.486;7.964;2023-10-13T16:00:42;27.60;11.00
4840;DHT22;2434;48.486;7.964;2023-10-13T16:03:12;27.60;11.80
4840;DHT22;2434;48.486;7.964;2023-10-13T16:05:40;27.60;12.30
4840;DHT22;2434;48.486;7.964;2023-10-13T16:08:10;27.50;12.20
4840;DHT22;2434;48.486;7.964;2023-10-13T16:10:40;27.40;11.80
4840;DHT22;2434;48.486;7.964;2023-10-13T16:13:09;27.30;12.20
4840;DHT22;2434;48.486;7.964;2023-10-13T16:15:44;27.20;12.80
4840;DHT22;2434;48.486;7.964;2023-10-13T16:18:15;27.10;12.30
4840;DHT22;2434;48.486;7.964;2023-10-13T16:20:49;26.90;11.70
4840;DHT22;2434;48.486;7.964;2023-10-13T16:23:18;26.80;12.60
4840;DHT22;2434;48.486;7.964;2023-10-13T16:25:48;26.70;11.90
4840;DHT22;2434;48.486;7.964;2023-10-13T16:28:16;26.50;12.60
4840;DHT22;2434;48.486;7.964;2023-10-13T16:30:44;26.50;13.10
4840;DHT22;2434;48.486;7.964;2023-10-13T16:33:13;26.30;12.30
4840;DHT22;2434;48.486;7.964;2023-10-13T16:35:42;26.10;12.90
4840;DHT22;2434;48.486;7.964;2023-10-13T16:38:12;26.00;13.00
4840;DHT22;2434;48.486;7.964;2023-10-13T16:40:40;25.90;13.30
4840;DHT22;2434;48.486;7.964;2023-10-13T16:43:10;25.80;14.40
4840;DHT22;2434;48.486;7.964;2023-10-13T16:45:39;25.70;15.50
4840;DHT22;2434;48.486;7.964;2023-10-13T16:48:11;25.50;16.40
4840;DHT22;2434;48.486;7.964;2023-10-13T16:50:40;25.40;17.30
4840;DHT22;2434;48.486;7.964;2023-10-13T16:53:08;25.30;17.90
4840;DHT22;2434;48.486;7.964;2023-10-13T16:55:37;25.00;19.10
4840;DHT22;2434;48.486;7.964;2023-10-13T16:58:10;24.90;19.40